sensor_id;sensor_type;location;lat;lon;timestamp;P1;durP1;ratioP1;P2;durP2;ratioP2
44139;SDS011;29803;51.048;4.686;2022-10-31T00:00:27;22.27;;;12.38;;
44139;SDS011;29803;51.048;4.686;2022-10-31T00:02:58;20.75;;;12.73;;
44139;SDS011;29803;51.048;4.686;2022-10-31T00:05:28;23.75;;;14.15;;
44139;SDS011;29803;51.048;4.686;2022-10-31T00:07:59;27.17;;;13.60;;
44139;SDS011;29803;51.048;4.686;2022-10-31T00:10:29;26.50;;;14.85;;
44139;SDS011;29803;51.048;4.686;2022-10-31T00:13:00;23.17;;;13.73;;
44139;SDS011;29803;51.048;4.686;2022-10-31T00:15:32;34.25;;;16.20;;
44139;SDS011;29803;51.048;4.686;2022-10-31T00:18:03;27.73;;;16.15;;
44139;SDS011;29803;51.048;4.686;2022-10-31T00:20:35;26.73;;;14.57;;
44139;SDS011;29803;51.048;4.686;2022-10-31T00:23:06;41.30;;;17.48;;
44139;SDS011;29803;51.048;4.686;2022-10-31T00:25:37;33.72;;;17.30;;
44139;SDS011;29803;51.048;4.686;2022-10-31T00:28:09;28.80;;;16.17;;
44139;SDS011;29803;51.048;4.686;2022-10-31T00:30:42;24.67;;;14.38;;
44139;SDS011;29803;51.048;4.686;2022-10-31T00:33:12;34.30;;;17.80;;
44139;SDS011;29803;51.048;4.686;2022-10-31T00:35:42;28.50;;;13.75;;
44139;SDS011;29803;51.048;4.686;2022-10-31T00:38:13;27.58;;;14.43;;
44139;SDS011;29803;51.048;4.686;2022-10-31T00:40:43;29.80;;;14.80;;
44139;SDS011;29803;51.048;4.686;2022-10-31T00:43:14;26.75;;;14.20;;
44139;SDS011;29803;51.048;4.686;2022-10-31T00:45:44;28.85;;;14.70;;
44139;SDS011;29803;51.048;4.686;2022-10-31T00:48:15;34.42;;;16.80;;
44139;SDS011;29803;51.048;4.686;2022-10-31T00:50:45;25.83;;;15.00;;
44139;SDS011;29803;51.048;4.686;2022-10-31T00:53:16;32.60;;;18.17;;
44139;SDS011;29803;51.048;4.686;2022-10-31T00:55:46;42.28;;;17.60;;
44139;SDS011;29803;51.048;4.686;2022-10-31T00:58:17;28.63;;;15.77;;
44139;SDS011;29803;51.048;4.686;2022-10-31T01:00:47;26.48;;;14.43;;
44139;SDS011;29803;51.048;4.686;2022-10-31T01:03:26;30.60;;;15.90;;
44139;SDS011;29803;51.048;4.686;2022-10-31T01:06:02;41.30;;;15.70;;
44139;SDS011;29803;51.048;4.686;2022-10-31T01:08:34;29.02;;;14.43;;
44139;SDS011;29803;51.048;4.686;2022-10-31T01:11:12;45.53;;;16.40;;
44139;SDS011;29803;51.048;4.686;2022-10-31T01:13:44;25.27;;;12.82;;
44139;SDS011;29803;51.048;4.686;2022-10-31T01:16:16;50.22;;;16.63;;
44139;SDS011;29803;51.048;4.686;2022-10-31T01:18:48;31.20;;;15.18;;
44139;SDS011;29803;51.048;4.686;2022-10-31T01:21:21;37.47;;;16.48;;
44139;SDS011;29803;51.048;4.686;2022-10-31T01:23:53;30.13;;;16.60;;
44139;SDS011;29803;51.048;4.686;2022-10-31T01:26:26;286.20;;;28.90;;
44139;SDS011;29803;51.048;4.686;2022-10-31T01:28:59;41.58;;;15.13;;
44139;SDS011;29803;51.048;4.686;2022-10-31T01:31:34;24.40;;;13.32;;
44139;SDS011;29803;51.048;4.686;2022-10-31T01:34:06;28.42;;;14.00;;
44139;SDS011;29803;51.048;4.686;2022-10-31T01:36:37;22.35;;;13.77;;
44139;SDS011;29803;51.048;4.686;2022-10-31T01:39:09;28.08;;;14.35;;
44139;SDS011;29803;51.048;4.686;2022-10-31T01:41:42;31.42;;;13.95;;
44139;SDS011;29803;51.048;4.686;2022-10-31T01:46:50;93.30;;;16.10;;
44139;SDS011;29803;51.048;4.686;2022-10-31T01:49:34;57.17;;;16.73;;
44139;SDS011;29803;51.048;4.686;2022-10-31T01:52:18;34.97;;;16.15;;
44139;SDS011;29803;51.048;4.686;2022-10-31T01:55:02;34.85;;;16.05;;
44139;SDS011;29803;51.048;4.686;2022-10-31T01:57:36;41.17;;;15.18;;
44139;SDS011;29803;51.048;4.686;2022-10-31T02:00:10;27.65;;;11.68;;
44139;SDS011;29803;51.048;4.686;2022-10-31T02:02:42;22.83;;;11.75;;
44139;SDS011;29803;51.048;4.686;2022-10-31T02:05:16;17.63;;;11.50;;
44139;SDS011;29803;51.048;4.686;2022-10-31T02:07:55;20.30;;;11.63;;
44139;SDS011;29803;51.048;4.686;2022-10-31T02:10:30;35.20;;;15.52;;
44139;SDS011;29803;51.048;4.686;2022-10-31T02:13:03;18.73;;;10.65;;
44139;SDS011;29803;51.048;4.686;2022-10-31T02:15:36;18.40;;;10.18;;
44139;SDS011;29803;51.048;4.686;2022-10-31T02:18:08;17.30;;;10.90;;
44139;SDS011;29803;51.048;4.686;2022-10-31T02:32:26;30.45;;;12.80;;
44139;SDS011;29803;51.048;4.686;2022-10-31T02:35:34;28.42;;;13.85;;
44139;SDS011;29803;51.048;4.686;2022-10-31T02:38:29;31.58;;;13.18;;
44139;SDS011;29803;51.048;4.686;2022-10-31T02:41:12;28.80;;;13.73;;
44139;SDS011;29803;51.048;4.686;2022-10-31T02:44:02;26.83;;;13.00;;
44139;SDS011;29803;51.048;4.686;2022-10-31T02:46:54;22.42;;;12.93;;
44139;SDS011;29803;51.048;4.686;2022-10-31T02:52:27;19.38;;;10.90;;
44139;SDS011;29803;51.048;4.686;2022-10-31T02:55:12;25.83;;;12.32;;
44139;SDS011;29803;51.048;4.686;2022-10-31T02:58:05;31.45;;;13.82;;
44139;SDS011;29803;51.048;4.686;2022-10-31T03:14:43;30.50;;;14.15;;
44139;SDS011;29803;51.048;4.686;2022-10-31T03:17:32;29.58;;;12.88;;
44139;SDS011;29803;51.048;4.686;2022-10-31T03:20:10;24.35;;;13.38;;
44139;SDS011;29803;51.048;4.686;2022-10-31T03:22:40;24.42;;;13.52;;
44139;SDS011;29803;51.048;4.686;2022-10-31T03:25:12;28.40;;;12.18;;
44139;SDS011;29803;51.048;4.686;2022-10-31T03:27:43;24.55;;;13.90;;
44139;SDS011;29803;51.048;4.686;2022-10-31T03:30:15;27.83;;;12.82;;
44139;SDS011;29803;51.048;4.686;2022-10-31T03:32:51;32.60;;;13.85;;
44139;SDS011;29803;51.048;4.686;2022-10-31T03:35:25;24.13;;;13.02;;
44139;SDS011;29803;51.048;4.686;2022-10-31T03:37:57;42.47;;;14.15;;
44139;SDS011;29803;51.048;4.686;2022-10-31T03:40:30;54.17;;;11.05;;
44139;SDS011;29803;51.048;4.686;2022-10-31T03:43:04;21.85;;;9.35;;
44139;SDS011;29803;51.048;4.686;2022-10-31T03:45:41;29.77;;;11.75;;
44139;SDS011;29803;51.048;4.686;2022-10-31T03:48:16;35.78;;;13.18;;
44139;SDS011;29803;51.048;4.686;2022-10-31T03:54:13;25.58;;;12.85;;
44139;SDS011;29803;51.048;4.686;2022-10-31T03:56:51;29.95;;;14.60;;
44139;SDS011;29803;51.048;4.686;2022-10-31T04:02:50;29.73;;;13.82;;
44139;SDS011;29803;51.048;4.686;2022-10-31T04:05:28;23.20;;;12.35;;
44139;SDS011;29803;51.048;4.686;2022-10-31T04:08:00;71.07;;;15.40;;
44139;SDS011;29803;51.048;4.686;2022-10-31T04:10:35;23.58;;;12.90;;
44139;SDS011;29803;51.048;4.686;2022-10-31T04:13:08;24.55;;;11.77;;
44139;SDS011;29803;51.048;4.686;2022-10-31T04:15:43;24.65;;;11.75;;
44139;SDS011;29803;51.048;4.686;2022-10-31T04:18:14;32.30;;;14.20;;
44139;SDS011;29803;51.048;4.686;2022-10-31T04:20:46;30.27;;;13.70;;
44139;SDS011;29803;51.048;4.686;2022-10-31T04:23:26;42.22;;;15.13;;
44139;SDS011;29803;51.048;4.686;2022-10-31T04:25:58;41.30;;;13.98;;
44139;SDS011;29803;51.048;4.686;2022-10-31T04:28:29;24.33;;;12.40;;
44139;SDS011;29803;51.048;4.686;2022-10-31T04:30:59;69.35;;;14.35;;
44139;SDS011;29803;51.048;4.686;2022-10-31T04:33:30;51.22;;;13.48;;
44139;SDS011;29803;51.048;4.686;2022-10-31T04:36:01;22.30;;;12.68;;
44139;SDS011;29803;51.048;4.686;2022-10-31T04:38:31;25.88;;;13.23;;
44139;SDS011;29803;51.048;4.686;2022-10-31T04:41:01;30.95;;;14.70;;
44139;SDS011;29803;51.048;4.686;2022-10-31T04:43:32;67.85;;;14.38;;
44139;SDS011;29803;51.048;4.686;2022-10-31T04:46:02;22.15;;;12.57;;
44139;SDS011;29803;51.048;4.686;2022-10-31T04:48:34;31.42;;;15.20;;
44139;SDS011;29803;51.048;4.686;2022-10-31T04:51:04;34.15;;;15.63;;
44139;SDS011;29803;51.048;4.686;2022-10-31T04:53:35;27.77;;;13.90;;
44139;SDS011;29803;51.048;4.686;2022-10-31T04:56:05;27.27;;;13.93;;
44139;SDS011;29803;51.048;4.686;2022-10-31T04:58:36;25.13;;;13.27;;
44139;SDS011;29803;51.048;4.686;2022-10-31T05:01:06;58.03;;;15.95;;
44139;SDS011;29803;51.048;4.686;2022-10-31T05:03:37;26.13;;;14.13;;
44139;SDS011;29803;51.048;4.686;2022-10-31T05:06:09;24.05;;;12.75;;
44139;SDS011;29803;51.048;4.686;2022-10-31T05:08:40;25.30;;;13.43;;
44139;SDS011;29803;51.048;4.686;2022-10-31T05:11:10;30.67;;;14.02;;
44139;SDS011;29803;51.048;4.686;2022-10-31T05:13:41;25.85;;;12.43;;
44139;SDS011;29803;51.048;4.686;2022-10-31T05:16:11;28.65;;;12.35;;
44139;SDS011;29803;51.048;4.686;2022-10-31T05:18:42;20.63;;;11.48;;
44139;SDS011;29803;51.048;4.686;2022-10-31T05:21:12;21.40;;;11.38;;
44139;SDS011;29803;51.048;4.686;2022-10-31T05:23:43;28.92;;;12.75;;
44139;SDS011;29803;51.048;4.686;2022-10-31T05:26:13;22.75;;;12.45;;
44139;SDS011;29803;51.048;4.686;2022-10-31T05:28:43;29.02;;;14.15;;
44139;SDS011;29803;51.048;4.686;2022-10-31T05:31:14;21.13;;;12.25;;
44139;SDS011;29803;51.048;4.686;2022-10-31T05:33:44;26.15;;;14.00;;
44139;SDS011;29803;51.048;4.686;2022-10-31T05:36:15;30.40;;;15.23;;
44139;SDS011;29803;51.048;4.686;2022-10-31T05:38:45;27.00;;;13.85;;
44139;SDS011;29803;51.048;4.686;2022-10-31T05:41:16;26.90;;;15.02;;
44139;SDS011;29803;51.048;4.686;2022-10-31T05:43:46;26.88;;;14.48;;
44139;SDS011;29803;51.048;4.686;2022-10-31T05:46:17;25.05;;;12.88;;
44139;SDS011;29803;51.048;4.686;2022-10-31T05:48:47;25.83;;;14.65;;
44139;SDS011;29803;51.048;4.686;2022-10-31T05:51:18;23.42;;;12.15;;
44139;SDS011;29803;51.048;4.686;2022-10-31T05:53:48;24.55;;;13.13;;
44139;SDS011;29803;51.048;4.686;2022-10-31T05:56:19;18.42;;;10.80;;
44139;SDS011;29803;51.048;4.686;2022-10-31T05:58:49;24.35;;;12.73;;
44139;SDS011;29803;51.048;4.686;2022-10-31T06:01:19;24.35;;;13.20;;
44139;SDS011;29803;51.048;4.686;2022-10-31T06:03:50;24.38;;;13.75;;
44139;SDS011;29803;51.048;4.686;2022-10-31T06:06:20;23.77;;;12.57;;
44139;SDS011;29803;51.048;4.686;2022-10-31T06:08:51;23.98;;;12.63;;
44139;SDS011;29803;51.048;4.686;2022-10-31T06:11:21;18.67;;;10.00;;
44139;SDS011;29803;51.048;4.686;2022-10-31T06:13:52;14.98;;;9.05;;
44139;SDS011;29803;51.048;4.686;2022-10-31T06:16:22;19.98;;;9.93;;
44139;SDS011;29803;51.048;4.686;2022-10-31T06:18:53;25.55;;;12.20;;
44139;SDS011;29803;51.048;4.686;2022-10-31T06:21:23;15.55;;;9.18;;
44139;SDS011;29803;51.048;4.686;2022-10-31T06:23:54;15.38;;;8.73;;
44139;SDS011;29803;51.048;4.686;2022-10-31T06:26:24;14.27;;;8.82;;
44139;SDS011;29803;51.048;4.686;2022-10-31T06:28:55;28.67;;;13.70;;
44139;SDS011;29803;51.048;4.686;2022-10-31T06:31:25;21.48;;;11.27;;
44139;SDS011;29803;51.048;4.686;2022-10-31T06:33:56;20.08;;;11.15;;
44139;SDS011;29803;51.048;4.686;2022-10-31T06:36:27;20.35;;;11.20;;
44139;SDS011;29803;51.048;4.686;2022-10-31T06:38:57;21.67;;;11.23;;
44139;SDS011;29803;51.048;4.686;2022-10-31T06:41:27;30.27;;;13.80;;
44139;SDS011;29803;51.048;4.686;2022-10-31T06:43:58;26.45;;;12.52;;
44139;SDS011;29803;51.048;4.686;2022-10-31T06:46:28;25.52;;;14.30;;
44139;SDS011;29803;51.048;4.686;2022-10-31T06:48:59;31.30;;;14.25;;
44139;SDS011;29803;51.048;4.686;2022-10-31T06:51:30;27.75;;;13.27;;
44139;SDS011;29803;51.048;4.686;2022-10-31T06:54:00;23.88;;;12.95;;
44139;SDS011;29803;51.048;4.686;2022-10-31T06:56:31;26.67;;;13.63;;
44139;SDS011;29803;51.048;4.686;2022-10-31T06:59:01;25.65;;;13.30;;
44139;SDS011;29803;51.048;4.686;2022-10-31T07:01:32;27.27;;;13.60;;
44139;SDS011;29803;51.048;4.686;2022-10-31T07:04:02;29.60;;;13.35;;
44139;SDS011;29803;51.048;4.686;2022-10-31T07:06:33;32.13;;;14.48;;
44139;SDS011;29803;51.048;4.686;2022-10-31T07:09:03;27.45;;;14.40;;
44139;SDS011;29803;51.048;4.686;2022-10-31T07:11:34;28.35;;;14.02;;
44139;SDS011;29803;51.048;4.686;2022-10-31T07:14:04;26.33;;;13.68;;
44139;SDS011;29803;51.048;4.686;2022-10-31T07:16:35;28.35;;;14.80;;
44139;SDS011;29803;51.048;4.686;2022-10-31T07:19:05;37.60;;;14.43;;
44139;SDS011;29803;51.048;4.686;2022-10-31T07:21:36;34.47;;;16.95;;
44139;SDS011;29803;51.048;4.686;2022-10-31T07:24:06;35.38;;;16.45;;
44139;SDS011;29803;51.048;4.686;2022-10-31T07:26:37;30.17;;;15.45;;
44139;SDS011;29803;51.048;4.686;2022-10-31T07:29:07;30.20;;;14.25;;
44139;SDS011;29803;51.048;4.686;2022-10-31T07:31:38;33.35;;;14.68;;
44139;SDS011;29803;51.048;4.686;2022-10-31T07:34:08;35.90;;;16.85;;
44139;SDS011;29803;51.048;4.686;2022-10-31T07:36:39;43.50;;;18.38;;
44139;SDS011;29803;51.048;4.686;2022-10-31T07:39:09;40.22;;;19.08;;
44139;SDS011;29803;51.048;4.686;2022-10-31T07:41:40;42.63;;;19.20;;
44139;SDS011;29803;51.048;4.686;2022-10-31T07:44:10;41.72;;;19.63;;
44139;SDS011;29803;51.048;4.686;2022-10-31T07:46:41;30.52;;;16.67;;
44139;SDS011;29803;51.048;4.686;2022-10-31T07:49:11;32.15;;;17.30;;
44139;SDS011;29803;51.048;4.686;2022-10-31T07:51:42;46.03;;;19.95;;
44139;SDS011;29803;51.048;4.686;2022-10-31T07:54:12;39.58;;;19.23;;
44139;SDS011;29803;51.048;4.686;2022-10-31T07:56:42;57.67;;;25.30;;
44139;SDS011;29803;51.048;4.686;2022-10-31T07:59:13;52.88;;;23.90;;
44139;SDS011;29803;51.048;4.686;2022-10-31T08:01:43;63.90;;;25.50;;
44139;SDS011;29803;51.048;4.686;2022-10-31T08:04:14;67.05;;;27.52;;
44139;SDS011;29803;51.048;4.686;2022-10-31T08:06:44;57.92;;;27.05;;
44139;SDS011;29803;51.048;4.686;2022-10-31T08:09:15;58.03;;;25.63;;
44139;SDS011;29803;51.048;4.686;2022-10-31T08:11:45;57.55;;;26.92;;
44139;SDS011;29803;51.048;4.686;2022-10-31T08:14:16;63.55;;;27.55;;
44139;SDS011;29803;51.048;4.686;2022-10-31T08:16:47;69.20;;;29.20;;
44139;SDS011;29803;51.048;4.686;2022-10-31T08:19:17;61.95;;;29.80;;
44139;SDS011;29803;51.048;4.686;2022-10-31T08:21:51;67.80;;;30.58;;
44139;SDS011;29803;51.048;4.686;2022-10-31T08:24:22;64.90;;;29.53;;
44139;SDS011;29803;51.048;4.686;2022-10-31T08:26:53;72.28;;;29.00;;
44139;SDS011;29803;51.048;4.686;2022-10-31T08:29:23;56.80;;;27.67;;
44139;SDS011;29803;51.048;4.686;2022-10-31T08:31:54;64.18;;;28.55;;
44139;SDS011;29803;51.048;4.686;2022-10-31T08:34:24;66.18;;;30.60;;
44139;SDS011;29803;51.048;4.686;2022-10-31T08:36:55;62.10;;;28.27;;
44139;SDS011;29803;51.048;4.686;2022-10-31T08:39:26;65.53;;;29.95;;
44139;SDS011;29803;51.048;4.686;2022-10-31T08:41:56;69.20;;;29.85;;
44139;SDS011;29803;51.048;4.686;2022-10-31T08:44:27;60.80;;;29.50;;
44139;SDS011;29803;51.048;4.686;2022-10-31T08:46:57;64.43;;;29.55;;
44139;SDS011;29803;51.048;4.686;2022-10-31T08:49:28;57.17;;;25.55;;
44139;SDS011;29803;51.048;4.686;2022-10-31T08:51:59;50.35;;;25.58;;
44139;SDS011;29803;51.048;4.686;2022-10-31T08:54:29;68.40;;;27.75;;
44139;SDS011;29803;51.048;4.686;2022-10-31T08:57:00;67.90;;;27.27;;
44139;SDS011;29803;51.048;4.686;2022-10-31T08:59:31;65.43;;;26.80;;
44139;SDS011;29803;51.048;4.686;2022-10-31T09:02:01;57.90;;;26.50;;
44139;SDS011;29803;51.048;4.686;2022-10-31T09:04:31;60.45;;;27.75;;
44139;SDS011;29803;51.048;4.686;2022-10-31T09:07:02;55.78;;;25.98;;
44139;SDS011;29803;51.048;4.686;2022-10-31T09:09:33;51.53;;;25.88;;
44139;SDS011;29803;51.048;4.686;2022-10-31T09:12:03;65.15;;;30.27;;
44139;SDS011;29803;51.048;4.686;2022-10-31T09:14:34;56.88;;;26.63;;
44139;SDS011;29803;51.048;4.686;2022-10-31T09:17:04;58.67;;;26.98;;
44139;SDS011;29803;51.048;4.686;2022-10-31T09:19:35;66.10;;;28.38;;
44139;SDS011;29803;51.048;4.686;2022-10-31T09:22:06;61.53;;;27.92;;
44139;SDS011;29803;51.048;4.686;2022-10-31T09:24:36;69.78;;;29.38;;
44139;SDS011;29803;51.048;4.686;2022-10-31T09:27:07;54.22;;;26.08;;
44139;SDS011;29803;51.048;4.686;2022-10-31T09:29:40;63.10;;;27.80;;
44139;SDS011;29803;51.048;4.686;2022-10-31T09:32:11;63.22;;;28.67;;
44139;SDS011;29803;51.048;4.686;2022-10-31T09:34:41;59.67;;;29.05;;
44139;SDS011;29803;51.048;4.686;2022-10-31T09:37:12;50.55;;;26.33;;
44139;SDS011;29803;51.048;4.686;2022-10-31T09:39:42;65.53;;;26.48;;
44139;SDS011;29803;51.048;4.686;2022-10-31T09:47:48;56.33;;;25.92;;
44139;SDS011;29803;51.048;4.686;2022-10-31T09:50:28;49.05;;;24.80;;
44139;SDS011;29803;51.048;4.686;2022-10-31T09:56:01;56.10;;;26.38;;
44139;SDS011;29803;51.048;4.686;2022-10-31T09:58:38;57.72;;;26.85;;
44139;SDS011;29803;51.048;4.686;2022-10-31T10:01:17;56.85;;;26.42;;
44139;SDS011;29803;51.048;4.686;2022-10-31T10:03:59;50.75;;;25.55;;
44139;SDS011;29803;51.048;4.686;2022-10-31T10:06:35;57.53;;;25.73;;
44139;SDS011;29803;51.048;4.686;2022-10-31T10:09:14;59.65;;;26.05;;
44139;SDS011;29803;51.048;4.686;2022-10-31T10:11:49;59.90;;;25.55;;
44139;SDS011;29803;51.048;4.686;2022-10-31T10:17:24;51.83;;;26.45;;
44139;SDS011;29803;51.048;4.686;2022-10-31T10:23:23;53.67;;;25.45;;
44139;SDS011;29803;51.048;4.686;2022-10-31T10:26:04;52.90;;;25.48;;
44139;SDS011;29803;51.048;4.686;2022-10-31T10:29:00;49.53;;;25.08;;
44139;SDS011;29803;51.048;4.686;2022-10-31T10:31:35;54.95;;;24.58;;
44139;SDS011;29803;51.048;4.686;2022-10-31T10:35:11;43.47;;;24.25;;
44139;SDS011;29803;51.048;4.686;2022-10-31T10:37:20;45.67;;;23.27;;
44139;SDS011;29803;51.048;4.686;2022-10-31T10:40:08;41.97;;;22.02;;
44139;SDS011;29803;51.048;4.686;2022-10-31T10:42:59;51.08;;;24.13;;
44139;SDS011;29803;51.048;4.686;2022-10-31T10:45:57;50.25;;;23.92;;
44139;SDS011;29803;51.048;4.686;2022-10-31T10:57:58;52.83;;;23.60;;
44139;SDS011;29803;51.048;4.686;2022-10-31T11:00:53;52.67;;;23.27;;
44139;SDS011;29803;51.048;4.686;2022-10-31T11:03:25;52.17;;;23.85;;
44139;SDS011;29803;51.048;4.686;2022-10-31T11:05:56;49.80;;;22.63;;
44139;SDS011;29803;51.048;4.686;2022-10-31T11:08:33;45.42;;;23.48;;
44139;SDS011;29803;51.048;4.686;2022-10-31T11:11:07;45.92;;;21.98;;
44139;SDS011;29803;51.048;4.686;2022-10-31T11:13:45;48.42;;;22.88;;
44139;SDS011;29803;51.048;4.686;2022-10-31T11:19:05;44.83;;;21.55;;
44139;SDS011;29803;51.048;4.686;2022-10-31T11:21:42;47.88;;;22.05;;
44139;SDS011;29803;51.048;4.686;2022-10-31T11:24:19;45.53;;;20.23;;
44139;SDS011;29803;51.048;4.686;2022-10-31T11:26:51;47.15;;;20.20;;
44139;SDS011;29803;51.048;4.686;2022-10-31T11:29:32;38.88;;;19.10;;
44139;SDS011;29803;51.048;4.686;2022-10-31T11:32:03;42.70;;;20.08;;
44139;SDS011;29803;51.048;4.686;2022-10-31T11:34:43;43.38;;;19.38;;
44139;SDS011;29803;51.048;4.686;2022-10-31T11:37:16;40.80;;;19.80;;
44139;SDS011;29803;51.048;4.686;2022-10-31T11:39:58;46.97;;;19.05;;
44139;SDS011;29803;51.048;4.686;2022-10-31T11:42:36;38.50;;;19.50;;
44139;SDS011;29803;51.048;4.686;2022-10-31T11:45:27;36.13;;;17.60;;
44139;SDS011;29803;51.048;4.686;2022-10-31T11:48:01;35.80;;;17.65;;
44139;SDS011;29803;51.048;4.686;2022-10-31T11:50:47;39.88;;;19.08;;
44139;SDS011;29803;51.048;4.686;2022-10-31T11:58:56;31.63;;;16.60;;
44139;SDS011;29803;51.048;4.686;2022-10-31T12:01:32;32.22;;;16.55;;
44139;SDS011;29803;51.048;4.686;2022-10-31T12:04:10;41.65;;;16.77;;
44139;SDS011;29803;51.048;4.686;2022-10-31T12:06:41;28.35;;;14.48;;
44139;SDS011;29803;51.048;4.686;2022-10-31T12:14:28;36.00;;;14.77;;
44139;SDS011;29803;51.048;4.686;2022-10-31T12:17:27;31.40;;;13.30;;
44139;SDS011;29803;51.048;4.686;2022-10-31T12:31:34;25.52;;;11.25;;
44139;SDS011;29803;51.048;4.686;2022-10-31T12:48:30;19.75;;;9.25;;
44139;SDS011;29803;51.048;4.686;2022-10-31T12:57:23;23.42;;;10.77;;
44139;SDS011;29803;51.048;4.686;2022-10-31T13:00:13;25.92;;;11.27;;
44139;SDS011;29803;51.048;4.686;2022-10-31T13:05:29;23.90;;;9.75;;
44139;SDS011;29803;51.048;4.686;2022-10-31T13:11:02;28.33;;;10.15;;
44139;SDS011;29803;51.048;4.686;2022-10-31T13:13:45;24.85;;;9.70;;
44139;SDS011;29803;51.048;4.686;2022-10-31T13:16:30;24.05;;;9.40;;
44139;SDS011;29803;51.048;4.686;2022-10-31T13:24:36;25.15;;;9.85;;
44139;SDS011;29803;51.048;4.686;2022-10-31T13:27:58;25.50;;;9.32;;
44139;SDS011;29803;51.048;4.686;2022-10-31T13:30:21;21.75;;;9.45;;
44139;SDS011;29803;51.048;4.686;2022-10-31T13:33:01;26.38;;;10.57;;
44139;SDS011;29803;51.048;4.686;2022-10-31T13:35:40;18.35;;;9.25;;
44139;SDS011;29803;51.048;4.686;2022-10-31T13:46:40;29.20;;;10.00;;
44139;SDS011;29803;51.048;4.686;2022-10-31T13:57:15;23.17;;;9.18;;
44139;SDS011;29803;51.048;4.686;2022-10-31T13:59:55;25.73;;;9.30;;
44139;SDS011;29803;51.048;4.686;2022-10-31T14:02:32;19.60;;;9.18;;
44139;SDS011;29803;51.048;4.686;2022-10-31T14:05:25;22.88;;;9.40;;
44139;SDS011;29803;51.048;4.686;2022-10-31T14:07:56;22.13;;;8.55;;
44139;SDS011;29803;51.048;4.686;2022-10-31T14:15:59;20.17;;;8.25;;
44139;SDS011;29803;51.048;4.686;2022-10-31T14:18:33;17.98;;;8.65;;
44139;SDS011;29803;51.048;4.686;2022-10-31T14:23:53;26.67;;;8.75;;
44139;SDS011;29803;51.048;4.686;2022-10-31T14:29:00;17.95;;;9.18;;
44139;SDS011;29803;51.048;4.686;2022-10-31T14:31:44;21.30;;;8.15;;
44139;SDS011;29803;51.048;4.686;2022-10-31T14:34:28;24.02;;;8.85;;
44139;SDS011;29803;51.048;4.686;2022-10-31T14:39:47;16.90;;;7.15;;
44139;SDS011;29803;51.048;4.686;2022-10-31T14:42:49;27.77;;;9.23;;
44139;SDS011;29803;51.048;4.686;2022-10-31T14:51:21;22.55;;;7.90;;
44139;SDS011;29803;51.048;4.686;2022-10-31T14:53:55;18.15;;;7.72;;
44139;SDS011;29803;51.048;4.686;2022-10-31T14:56:28;21.52;;;8.65;;
44139;SDS011;29803;51.048;4.686;2022-10-31T14:59:03;22.58;;;8.43;;
44139;SDS011;29803;51.048;4.686;2022-10-31T15:01:38;23.13;;;8.52;;
44139;SDS011;29803;51.048;4.686;2022-10-31T15:04:17;23.80;;;8.30;;
44139;SDS011;29803;51.048;4.686;2022-10-31T15:07:00;22.92;;;8.63;;
44139;SDS011;29803;51.048;4.686;2022-10-31T15:09:36;23.95;;;7.72;;
44139;SDS011;29803;51.048;4.686;2022-10-31T15:15:10;17.27;;;8.00;;
44139;SDS011;29803;51.048;4.686;2022-10-31T15:17:57;17.17;;;8.20;;
44139;SDS011;29803;51.048;4.686;2022-10-31T15:20:30;25.13;;;8.45;;
44139;SDS011;29803;51.048;4.686;2022-10-31T15:23:09;20.02;;;8.40;;
44139;SDS011;29803;51.048;4.686;2022-10-31T15:25:44;22.33;;;8.63;;
44139;SDS011;29803;51.048;4.686;2022-10-31T15:28:15;21.92;;;8.93;;
44139;SDS011;29803;51.048;4.686;2022-10-31T15:30:53;19.95;;;9.10;;
44139;SDS011;29803;51.048;4.686;2022-10-31T15:33:26;19.20;;;9.18;;
44139;SDS011;29803;51.048;4.686;2022-10-31T15:35:59;23.65;;;8.85;;
44139;SDS011;29803;51.048;4.686;2022-10-31T15:38:31;24.30;;;9.90;;
44139;SDS011;29803;51.048;4.686;2022-10-31T15:41:03;19.25;;;8.82;;
44139;SDS011;29803;51.048;4.686;2022-10-31T15:43:47;24.30;;;9.23;;
44139;SDS011;29803;51.048;4.686;2022-10-31T15:46:18;30.85;;;11.18;;
44139;SDS011;29803;51.048;4.686;2022-10-31T15:48:49;22.88;;;9.45;;
44139;SDS011;29803;51.048;4.686;2022-10-31T15:51:26;25.63;;;10.25;;
44139;SDS011;29803;51.048;4.686;2022-10-31T15:54:02;24.85;;;10.75;;
44139;SDS011;29803;51.048;4.686;2022-10-31T15:56:32;20.25;;;10.10;;
44139;SDS011;29803;51.048;4.686;2022-10-31T15:59:03;22.60;;;10.45;;
44139;SDS011;29803;51.048;4.686;2022-10-31T16:01:34;19.65;;;9.88;;
44139;SDS011;29803;51.048;4.686;2022-10-31T16:06:37;24.40;;;10.88;;
44139;SDS011;29803;51.048;4.686;2022-10-31T16:09:18;30.48;;;11.95;;
44139;SDS011;29803;51.048;4.686;2022-10-31T16:11:52;30.42;;;11.95;;
44139;SDS011;29803;51.048;4.686;2022-10-31T16:14:23;35.85;;;12.48;;
44139;SDS011;29803;51.048;4.686;2022-10-31T16:16:57;26.60;;;12.10;;
44139;SDS011;29803;51.048;4.686;2022-10-31T16:19:36;32.83;;;11.30;;
44139;SDS011;29803;51.048;4.686;2022-10-31T16:22:21;30.83;;;12.05;;
44139;SDS011;29803;51.048;4.686;2022-10-31T16:27:49;39.15;;;13.07;;
44139;SDS011;29803;51.048;4.686;2022-10-31T16:33:02;32.25;;;13.30;;
44139;SDS011;29803;51.048;4.686;2022-10-31T16:35:37;33.28;;;13.43;;
44139;SDS011;29803;51.048;4.686;2022-10-31T16:38:08;30.10;;;14.02;;
44139;SDS011;29803;51.048;4.686;2022-10-31T16:40:39;29.50;;;13.32;;
44139;SDS011;29803;51.048;4.686;2022-10-31T16:43:11;26.75;;;13.57;;
44139;SDS011;29803;51.048;4.686;2022-10-31T16:45:46;34.63;;;14.20;;
44139;SDS011;29803;51.048;4.686;2022-10-31T16:48:21;40.28;;;15.00;;
44139;SDS011;29803;51.048;4.686;2022-10-31T16:53:23;34.55;;;13.65;;
44139;SDS011;29803;51.048;4.686;2022-10-31T16:55:55;36.10;;;14.20;;
44139;SDS011;29803;51.048;4.686;2022-10-31T16:58:28;35.40;;;14.23;;
44139;SDS011;29803;51.048;4.686;2022-10-31T17:01:00;31.75;;;15.60;;
44139;SDS011;29803;51.048;4.686;2022-10-31T17:03:32;39.38;;;14.65;;
44139;SDS011;29803;51.048;4.686;2022-10-31T17:06:03;34.53;;;14.57;;
44139;SDS011;29803;51.048;4.686;2022-10-31T17:08:34;31.73;;;14.48;;
44139;SDS011;29803;51.048;4.686;2022-10-31T17:11:05;36.70;;;14.82;;
44139;SDS011;29803;51.048;4.686;2022-10-31T17:13:38;30.55;;;14.82;;
44139;SDS011;29803;51.048;4.686;2022-10-31T17:16:08;42.92;;;14.65;;
44139;SDS011;29803;51.048;4.686;2022-10-31T17:18:39;41.10;;;15.43;;
44139;SDS011;29803;51.048;4.686;2022-10-31T17:21:12;33.00;;;15.23;;
44139;SDS011;29803;51.048;4.686;2022-10-31T17:23:49;37.70;;;16.98;;
44139;SDS011;29803;51.048;4.686;2022-10-31T17:26:20;34.83;;;15.38;;
44139;SDS011;29803;51.048;4.686;2022-10-31T17:28:50;45.47;;;17.02;;
44139;SDS011;29803;51.048;4.686;2022-10-31T17:31:22;38.97;;;15.43;;
44139;SDS011;29803;51.048;4.686;2022-10-31T17:33:57;38.92;;;15.70;;
44139;SDS011;29803;51.048;4.686;2022-10-31T17:36:29;32.97;;;15.05;;
44139;SDS011;29803;51.048;4.686;2022-10-31T17:39:00;37.78;;;14.82;;
44139;SDS011;29803;51.048;4.686;2022-10-31T17:41:32;31.17;;;14.10;;
44139;SDS011;29803;51.048;4.686;2022-10-31T17:44:03;28.10;;;12.88;;
44139;SDS011;29803;51.048;4.686;2022-10-31T17:46:33;26.10;;;11.90;;
44139;SDS011;29803;51.048;4.686;2022-10-31T17:49:04;34.35;;;11.55;;
44139;SDS011;29803;51.048;4.686;2022-10-31T17:51:36;27.70;;;12.13;;